Time;durP1;ratioP1;P1;durP2;ratioP2;P2;SDS_P1;SDS_P2;PMS_P1;PMS_P2;Temp;Humidity;BMP_temperature;BMP_pressure;BME280_temperature;BME280_humidity;BME280_pressure;Samples;Min_cycle;Max_cycle;Signal;HPM_P1;HPM_P2
2022/05/20 00:01:14;;;;;;;14.68;12.25;;;17.30;99.90;;;;;;5062127;28;20264;-71
2022/05/20 00:03:42;;;;;;;17.05;13.30;;;17.40;99.90;;;;;;5069453;28;20202;-70
2022/05/20 00:06:09;;;;;;;19.10;12.25;;;17.30;99.90;;;;;;5061765;28;20657;-70
2022/05/20 00:08:38;;;;;;;14.77;12.07;;;17.40;99.90;;;;;;5069642;28;20265;-71
2022/05/20 00:11:05;;;;;;;16.67;12.63;;;17.40;99.90;;;;;;5059904;28;20288;-70
2022/05/20 00:13:32;;;;;;;16.95;13.05;;;17.30;99.90;;;;;;5062321;28;20277;-70
2022/05/20 00:16:01;;;;;;;17.02;13.52;;;17.30;99.90;;;;;;5057760;28;20206;-70
2022/05/20 00:18:28;;;;;;;16.75;14.88;;;17.20;99.90;;;;;;5073748;28;20230;-71
2022/05/20 00:20:55;;;;;;;19.63;15.35;;;17.20;99.90;;;;;;5067155;28;20211;-71
2022/05/20 00:23:22;;;;;;;18.80;14.27;;;17.20;99.90;;;;;;5059580;28;20198;-72
2022/05/20 00:25:49;;;;;;;16.13;14.07;;;17.10;99.90;;;;;;5072140;28;20252;-70
2022/05/20 00:28:19;;;;;;;21.48;16.17;;;17.10;99.90;;;;;;5072640;28;20267;-71
2022/05/20 00:30:47;;;;;;;17.45;14.50;;;17.00;99.90;;;;;;5074330;28;20877;-71
2022/05/20 00:33:15;;;;;;;19.23;15.52;;;17.00;99.90;;;;;;5074630;28;20202;-71
2022/05/20 00:35:42;;;;;;;18.63;15.88;;;16.80;99.90;;;;;;5074018;28;20211;-71
2022/05/20 00:38:10;;;;;;;18.02;15.60;;;16.90;99.90;;;;;;5054931;28;20379;-71
2022/05/20 00:40:37;;;;;;;20.95;15.73;;;16.80;99.90;;;;;;5072754;28;20769;-71
2022/05/20 00:43:13;;;;;;;18.23;15.80;;;16.80;99.90;;;;;;5058932;28;20261;-71
2022/05/20 00:45:41;;;;;;;21.33;16.83;;;16.80;99.90;;;;;;5073505;28;20206;-71
2022/05/20 00:48:09;;;;;;;20.15;16.75;;;16.80;99.90;;;;;;5072820;28;20286;-71
2022/05/20 00:50:40;;;;;;;19.70;17.33;;;16.80;99.90;;;;;;5067466;28;20869;-71
2022/05/20 00:53:08;;;;;;;19.42;17.33;;;16.80;99.90;;;;;;5073084;28;20230;-71
2022/05/20 00:55:35;;;;;;;20.60;17.13;;;16.80;99.90;;;;;;5070107;28;20203;-71
2022/05/20 00:58:07;;;;;;;20.98;17.67;;;16.90;99.90;;;;;;5073174;28;20612;-71
2022/05/20 01:00:38;;;;;;;20.15;17.85;;;16.90;99.90;;;;;;5072747;28;20213;-70
2022/05/20 01:03:09;;;;;;;20.92;17.55;;;16.90;99.90;;;;;;5072754;28;20229;-70
2022/05/20 01:05:40;;;;;;;20.25;17.13;;;16.80;99.90;;;;;;5064549;28;20276;-71
2022/05/20 01:08:08;;;;;;;21.77;18.23;;;16.80;99.90;;;;;;5066318;28;20862;-70
2022/05/20 01:10:36;;;;;;;20.77;17.52;;;16.80;99.90;;;;;;5071628;28;20202;-70
2022/05/20 01:13:03;;;;;;;21.17;17.88;;;16.70;99.90;;;;;;5073759;28;20710;-70
2022/05/20 01:15:30;;;;;;;20.45;17.15;;;16.70;99.90;;;;;;5072454;28;20206;-70
2022/05/20 01:17:58;;;;;;;21.30;16.92;;;16.70;99.90;;;;;;5055531;28;20304;-70
2022/05/20 01:20:29;;;;;;;20.65;18.45;;;16.70;99.90;;;;;;5064114;28;20234;-70
2022/05/20 01:23:05;;;;;;;21.02;17.52;;;16.60;99.90;;;;;;5052823;28;20596;-70
2022/05/20 01:25:33;;;;;;;19.55;17.17;;;16.60;99.90;;;;;;5066832;28;20202;-70
2022/05/20 01:28:00;;;;;;;20.77;18.20;;;16.50;99.90;;;;;;5053292;28;20245;-70
2022/05/20 01:30:29;;;;;;;22.88;18.73;;;16.40;99.90;;;;;;5067217;28;20199;-70
2022/05/20 01:32:59;;;;;;;21.58;19.05;;;16.50;99.90;;;;;;5070002;28;20286;-70
2022/05/20 01:35:32;;;;;;;22.00;19.23;;;16.50;99.90;;;;;;5072739;28;20210;-71
2022/05/20 01:38:00;;;;;;;22.73;19.60;;;16.50;99.90;;;;;;5072365;28;20199;-71
2022/05/20 01:40:35;;;;;;;21.00;18.58;;;16.50;99.90;;;;;;5072000;28;20248;-71
2022/05/20 01:43:07;;;;;;;24.17;19.10;;;16.40;99.90;;;;;;5072054;28;20255;-69
2022/05/20 01:45:38;;;;;;;23.10;19.48;;;16.50;99.90;;;;;;5071835;28;20224;-69
2022/05/20 01:48:13;;;;;;;24.40;20.33;;;16.50;99.90;;;;;;5072535;28;20683;-69
2022/05/20 01:50:47;;;;;;;25.60;19.90;;;16.50;99.90;;;;;;5059154;28;20550;-69
2022/05/20 01:53:18;;;;;;;27.17;20.98;;;16.40;99.90;;;;;;5052332;28;20548;-69
2022/05/20 01:55:51;;;;;;;25.93;20.90;;;16.40;99.90;;;;;;5071723;28;20226;-69
2022/05/20 01:58:23;;;;;;;24.60;19.50;;;16.40;99.90;;;;;;5071375;28;20211;-69
2022/05/20 02:00:55;;;;;;;24.50;19.95;;;16.30;99.90;;;;;;5071180;28;20259;-69
2022/05/20 02:03:28;;;;;;;24.83;20.90;;;16.40;99.90;;;;;;5072460;28;20272;-69
2022/05/20 02:05:59;;;;;;;25.08;20.33;;;16.40;99.90;;;;;;5057116;28;20596;-69
2022/05/20 02:08:32;;;;;;;25.67;20.60;;;16.30;99.90;;;;;;5052638;28;20210;-69
2022/05/20 02:11:06;;;;;;;25.73;21.23;;;16.20;99.90;;;;;;5063685;28;20199;-69
2022/05/20 02:13:35;;;;;;;26.92;21.40;;;16.20;99.90;;;;;;5070254;28;20194;-69
2022/05/20 02:16:07;;;;;;;26.97;20.37;;;16.20;99.90;;;;;;5071854;28;20911;-69
2022/05/20 02:18:40;;;;;;;26.83;21.15;;;16.20;99.90;;;;;;5068764;28;20214;-69
2022/05/20 02:21:12;;;;;;;23.97;19.70;;;16.10;99.90;;;;;;5052243;28;20561;-69
2022/05/20 02:23:43;;;;;;;27.57;20.07;;;16.10;99.90;;;;;;5068447;28;20206;-69
2022/05/20 02:26:16;;;;;;;25.00;20.02;;;16.00;99.90;;;;;;5070943;28;20203;-69
2022/05/20 02:28:46;;;;;;;24.67;20.23;;;16.00;99.90;;;;;;5061424;28;20206;-69
2022/05/20 02:31:19;;;;;;;24.73;20.53;;;16.00;99.90;;;;;;5052104;28;20214;-69
2022/05/20 02:33:46;;;;;;;28.03;21.57;;;15.80;99.90;;;;;;5067483;28;20255;-69
2022/05/20 02:36:19;;;;;;;25.70;20.80;;;15.80;99.90;;;;;;5072095;28;20210;-69
2022/05/20 02:38:46;;;;;;;27.40;21.60;;;15.70;99.90;;;;;;5070023;28;20253;-69
2022/05/20 02:41:14;;;;;;;26.55;21.23;;;15.70;99.90;;;;;;5070871;28;20205;-69
2022/05/20 02:43:41;;;;;;;26.30;19.77;;;15.70;99.90;;;;;;5069639;28;20637;-69
2022/05/20 02:46:09;;;;;;;27.10;21.23;;;15.60;99.90;;;;;;5070727;28;20198;-69
2022/05/20 02:48:36;;;;;;;27.43;20.63;;;15.60;99.90;;;;;;5070482;28;20238;-69
2022/05/20 02:51:03;;;;;;;26.65;20.30;;;15.50;99.90;;;;;;5071864;28;20244;-69
2022/05/20 02:53:30;;;;;;;28.80;20.67;;;15.50;99.90;;;;;;5070792;28;20656;-69
2022/05/20 02:55:57;;;;;;;27.07;20.33;;;15.50;99.90;;;;;;5064746;28;20261;-69
2022/05/20 03:04:12;;;;;;;26.13;19.93;;;15.40;99.90;;;;;;5071532;28;20205;-69
2022/05/20 03:06:40;;;;;;;26.57;20.93;;;15.30;99.90;;;;;;5069187;28;20213;-69
2022/05/20 03:09:09;;;;;;;28.10;19.97;;;15.30;99.90;;;;;;5069792;28;20272;-69
2022/05/20 03:11:36;;;;;;;28.13;21.73;;;15.30;99.90;;;;;;5071211;28;20622;-69
2022/05/20 03:14:05;;;;;;;26.77;19.87;;;15.30;99.90;;;;;;5071324;28;20202;-69
2022/05/20 03:16:32;;;;;;;27.27;21.17;;;15.30;99.90;;;;;;5062570;28;20560;-69
2022/05/20 03:18:59;;;;;;;26.07;20.47;;;15.30;99.90;;;;;;5060291;28;20258;-69
2022/05/20 03:21:27;;;;;;;29.13;20.97;;;15.20;99.90;;;;;;5058209;28;20203;-70
2022/05/20 03:23:54;;;;;;;27.40;20.60;;;15.20;99.90;;;;;;5058926;28;20228;-70
2022/05/20 03:26:21;;;;;;;29.13;21.10;;;15.20;99.90;;;;;;5070179;28;20244;-70
2022/05/20 03:28:48;;;;;;;30.10;22.27;;;15.20;99.90;;;;;;5064214;28;20214;-70
2022/05/20 03:31:17;;;;;;;27.17;20.53;;;15.20;99.90;;;;;;5070928;28;20255;-70
2022/05/20 03:33:46;;;;;;;27.97;21.33;;;15.10;99.90;;;;;;5070985;28;20194;-70
2022/05/20 03:36:14;;;;;;;27.67;20.87;;;15.20;99.90;;;;;;5071347;28;20292;-70
2022/05/20 03:38:41;;;;;;;28.70;20.10;;;15.20;99.90;;;;;;5054950;28;20262;-70
2022/05/20 03:41:08;;;;;;;29.27;21.43;;;15.00;99.90;;;;;;5050825;28;20203;-70
2022/05/20 03:43:35;;;;;;;26.20;20.20;;;15.10;99.90;;;;;;5062476;28;20264;-70
2022/05/20 03:46:02;;;;;;;26.40;20.00;;;15.20;99.90;;;;;;5057751;28;20215;-70
2022/05/20 03:48:30;;;;;;;29.20;20.23;;;15.10;99.90;;;;;;5051945;28;20207;-70
2022/05/20 03:50:57;;;;;;;28.30;19.30;;;15.20;99.90;;;;;;5051317;28;20608;-70
2022/05/20 03:53:24;;;;;;;25.20;18.70;;;15.10;99.90;;;;;;5050919;28;20203;-70
2022/05/20 03:55:52;;;;;;;25.97;20.17;;;15.20;99.90;;;;;;5052775;28;20260;-70
2022/05/20 03:58:18;;;;;;;25.90;20.23;;;15.10;99.90;;;;;;5070779;28;20202;-70
2022/05/20 04:03:31;;;;;;;29.83;20.07;;;15.30;99.90;;;;;;5055219;28;20190;-70
2022/05/20 04:06:00;;;;;;;27.90;20.03;;;15.40;99.90;;;;;;5054824;28;20599;-70
2022/05/20 04:08:27;;;;;;;25.97;20.40;;;15.40;99.90;;;;;;5055880;28;20215;-70
2022/05/20 04:10:54;;;;;;;26.63;19.63;;;15.30;99.90;;;;;;5067433;28;20209;-70
2022/05/20 04:13:21;;;;;;;26.23;19.67;;;15.30;99.90;;;;;;5064712;28;20203;-70
2022/05/20 04:15:49;;;;;;;26.00;20.53;;;15.30;99.90;;;;;;5063883;28;20313;-70
2022/05/20 04:18:17;;;;;;;28.77;20.37;;;15.40;99.90;;;;;;5069522;28;20207;-70
2022/05/20 04:20:45;;;;;;;25.63;20.43;;;15.40;99.90;;;;;;5067987;28;20227;-69
2022/05/20 04:23:14;;;;;;;25.27;19.77;;;15.50;99.90;;;;;;5059511;28;20727;-74
2022/05/20 04:25:41;;;;;;;27.00;19.57;;;15.50;99.90;;;;;;5067578;28;20207;-74
2022/05/20 04:28:08;;;;;;;25.23;19.53;;;15.50;99.90;;;;;;5063373;28;20210;-74
2022/05/20 04:30:35;;;;;;;24.70;18.77;;;15.50;99.90;;;;;;5069238;28;20198;-74
2022/05/20 04:33:01;;;;;;;24.63;19.23;;;15.40;99.90;;;;;;5064951;28;20213;-74
2022/05/20 04:35:28;;;;;;;26.20;18.53;;;15.50;99.90;;;;;;5070515;28;20650;-74
2022/05/20 04:37:56;;;;;;;26.60;18.70;;;15.40;99.90;;;;;;5061343;28;20202;-74
2022/05/20 04:40:23;;;;;;;27.00;19.20;;;15.30;99.90;;;;;;5066781;28;20716;-74
2022/05/20 04:48:18;;;;;;;23.37;17.57;;;15.60;99.90;;;;;;5070145;28;20205;-73
2022/05/20 04:50:45;;;;;;;21.33;16.57;;;15.50;99.90;;;;;;5068945;28;20191;-73
2022/05/20 04:54:49;;;;;;;21.20;16.27;;;15.40;99.90;;;;;;5066090;28;20207;-74
2022/05/20 04:55:59;;;;;;;21.97;16.37;;;15.50;99.90;;;;;;5058148;28;20227;-74
2022/05/20 04:58:26;;;;;;;25.15;17.13;;;15.80;99.90;;;;;;5068753;28;20234;-73
2022/05/20 05:00:55;;;;;;;20.93;16.50;;;16.00;99.90;;;;;;5063451;28;20237;-73
2022/05/20 05:03:22;;;;;;;23.80;17.20;;;16.20;99.90;;;;;;5065238;28;20215;-73
2022/05/20 05:05:49;;;;;;;24.17;16.67;;;16.20;99.90;;;;;;5069176;28;20217;-73
2022/05/20 05:08:18;;;;;;;20.90;17.20;;;16.30;99.90;;;;;;5065888;28;20649;-73
2022/05/20 05:10:45;;;;;;;20.48;16.48;;;16.30;99.90;;;;;;5067015;28;20194;-76
2022/05/20 05:13:13;;;;;;;22.45;17.45;;;16.40;99.90;;;;;;5068297;28;20211;-75
2022/05/20 05:15:43;;;;;;;23.83;17.75;;;16.40;99.90;;;;;;5065078;28;20206;-75
2022/05/20 05:18:12;;;;;;;21.70;16.48;;;16.40;99.90;;;;;;5061548;28;20674;-75
2022/05/20 05:20:43;;;;;;;20.92;16.58;;;16.30;99.90;;;;;;5066166;28;20227;-75
2022/05/20 05:23:10;;;;;;;20.45;16.58;;;16.30;99.90;;;;;;5066859;28;20569;-74
2022/05/20 05:25:38;;;;;;;23.02;14.57;;;16.40;99.90;;;;;;5069782;28;20203;-75
2022/05/20 05:28:06;;;;;;;21.48;16.00;;;16.50;99.90;;;;;;5064115;28;20206;-75
2022/05/20 05:30:33;;;;;;;19.98;14.98;;;16.40;99.90;;;;;;5068438;28;20199;-74
2022/05/20 05:33:00;;;;;;;18.52;13.77;;;16.20;99.90;;;;;;5063061;28;20676;-74
2022/05/20 05:35:29;;;;;;;17.45;12.55;;;16.20;99.90;;;;;;5067040;28;20653;-75
2022/05/20 05:37:57;;;;;;;17.35;12.57;;;17.00;99.90;;;;;;5059489;28;20231;-75
2022/05/20 05:40:26;;;;;;;17.65;11.50;;;17.10;99.90;;;;;;5063726;28;20218;-75
2022/05/20 05:42:55;;;;;;;15.13;11.00;;;16.80;99.90;;;;;;5068609;28;20293;-75
2022/05/20 05:45:24;;;;;;;15.45;11.18;;;17.00;99.90;;;;;;5067291;28;20206;-75
2022/05/20 05:47:55;;;;;;;14.07;10.80;;;16.40;97.30;;;;;;5063901;28;20221;-74
2022/05/20 05:50:22;;;;;;;17.85;12.98;;;16.50;99.90;;;;;;5060018;28;20565;-75
2022/05/20 05:52:55;;;;;;;16.60;12.25;;;16.40;99.90;;;;;;5067236;28;20229;-75
2022/05/20 05:55:23;;;;;;;14.32;11.00;;;16.30;99.90;;;;;;5065824;28;20553;-74
2022/05/20 05:57:49;;;;;;;20.58;12.70;;;16.40;99.90;;;;;;5066553;28;20757;-74
2022/05/20 06:00:19;;;;;;;19.80;12.55;;;16.50;99.90;;;;;;5062079;28;20232;-74
2022/05/20 06:02:46;;;;;;;18.23;13.55;;;16.30;99.90;;;;;;5069672;28;20194;-74
2022/05/20 06:05:13;;;;;;;19.48;13.82;;;16.60;99.90;;;;;;5061930;28;20202;-74
2022/05/20 06:07:40;;;;;;;18.45;13.82;;;16.50;99.90;;;;;;5065865;28;20570;-74
2022/05/20 06:10:07;;;;;;;20.95;14.85;;;16.30;99.90;;;;;;5060836;28;20221;-74
2022/05/20 06:12:34;;;;;;;20.15;14.60;;;16.50;99.90;;;;;;5063219;28;20297;-74
2022/05/20 06:15:04;;;;;;;19.77;14.20;;;16.40;99.90;;;;;;5069752;28;20247;-74
2022/05/20 06:17:33;;;;;;;20.30;14.52;;;16.30;99.90;;;;;;5063958;28;20198;-74
2022/05/20 06:20:00;;;;;;;19.48;14.50;;;16.10;99.90;;;;;;5062788;28;20217;-74
2022/05/20 06:22:28;;;;;;;20.50;14.15;;;16.10;99.90;;;;;;5060818;28;20199;-74
2022/05/20 06:24:54;;;;;;;19.98;14.57;;;16.20;99.90;;;;;;5063303;28;20560;-74
2022/05/20 06:27:22;;;;;;;19.98;14.90;;;16.30;99.90;;;;;;5065683;28;20202;-74
2022/05/20 06:29:48;;;;;;;20.15;14.98;;;16.20;99.90;;;;;;5066087;28;20202;-74
2022/05/20 06:32:16;;;;;;;19.33;15.25;;;16.10;99.90;;;;;;5057968;28;20207;-74
2022/05/20 06:40:16;;;;;;;19.65;16.02;;;16.10;99.90;;;;;;5062978;28;20899;-74
2022/05/20 06:42:43;;;;;;;21.35;15.13;;;16.30;99.90;;;;;;5062798;28;20206;-74
2022/05/20 06:45:11;;;;;;;20.08;15.88;;;16.30;99.90;;;;;;5061611;28;20211;-74
2022/05/20 06:47:39;;;;;;;19.55;15.05;;;16.50;99.90;;;;;;5068037;28;20682;-74
2022/05/20 06:50:09;;;;;;;23.90;15.65;;;16.50;99.90;;;;;;5063446;28;20657;-74
2022/05/20 06:52:36;;;;;;;20.98;15.43;;;16.30;99.90;;;;;;5064050;28;20207;-74
2022/05/20 06:55:03;;;;;;;18.50;13.93;;;16.30;99.90;;;;;;5058769;28;20205;-74
2022/05/20 06:57:30;;;;;;;19.33;14.05;;;16.50;99.90;;;;;;5063401;28;20202;-74
2022/05/20 06:59:57;;;;;;;20.23;15.20;;;16.30;99.90;;;;;;5064896;28;20214;-74
2022/05/20 07:02:24;;;;;;;18.13;14.23;;;16.30;99.90;;;;;;5065940;28;20205;-74
2022/05/20 07:04:51;;;;;;;17.73;13.77;;;16.50;99.90;;;;;;5062460;28;20559;-74
2022/05/20 07:07:19;;;;;;;19.30;14.88;;;16.40;99.90;;;;;;5069302;28;20202;-74
2022/05/20 07:09:46;;;;;;;20.60;14.80;;;16.30;99.90;;;;;;5061047;28;20203;-73
2022/05/20 07:12:13;;;;;;;17.98;13.63;;;16.70;99.90;;;;;;5063735;28;20198;-74
2022/05/20 07:14:39;;;;;;;18.38;13.82;;;16.60;99.90;;;;;;5069993;28;20670;-74
2022/05/20 07:17:06;;;;;;;17.05;13.55;;;16.50;99.90;;;;;;5057535;28;20202;-73
2022/05/20 07:19:33;;;;;;;19.88;14.80;;;16.50;99.90;;;;;;5062079;28;20569;-74
2022/05/20 07:22:00;;;;;;;17.17;13.45;;;16.60;99.90;;;;;;5063635;28;20608;-74
2022/05/20 07:24:28;;;;;;;18.77;14.13;;;16.70;99.90;;;;;;5064111;28;20207;-74
2022/05/20 07:26:55;;;;;;;18.08;13.63;;;16.80;99.90;;;;;;5055833;28;20532;-74
2022/05/20 07:29:22;;;;;;;20.08;14.00;;;16.80;45.10;;;;;;5061950;28;20208;-74
2022/05/20 07:31:49;;;;;;;16.67;13.27;;;16.50;99.90;;;;;;5064977;28;20202;-74
2022/05/20 07:34:16;;;;;;;17.35;13.15;;;16.90;99.90;;;;;;5068317;28;20584;-74
2022/05/20 07:36:43;;;;;;;17.08;12.70;;;17.00;99.90;;;;;;5065341;28;20786;-74
2022/05/20 07:39:09;;;;;;;16.75;12.85;;;16.80;79.20;;;;;;5073516;28;20672;-74
2022/05/20 07:41:38;;;;;;;16.92;12.57;;;16.70;33.20;;;;;;5061253;28;20217;-74
2022/05/20 07:44:05;;;;;;;17.90;12.75;;;16.90;72.20;;;;;;5072958;28;20213;-74
2022/05/20 07:46:32;;;;;;;18.48;13.45;;;16.90;35.30;;;;;;5070080;28;20199;-74
2022/05/20 07:48:59;;;;;;;18.52;13.68;;;16.90;98.60;;;;;;5066433;28;20214;-74
2022/05/20 07:51:29;;;;;;;18.00;12.98;;;17.10;83.10;;;;;;5066273;28;20225;-74
2022/05/20 07:54:00;;;;;;;16.73;12.85;;;17.30;82.70;;;;;;5067502;28;20206;-74
2022/05/20 07:56:33;;;;;;;15.25;11.77;;;17.30;99.90;;;;;;5068294;28;20206;-73
2022/05/20 07:59:07;;;;;;;16.17;12.68;;;17.20;1.00;;;;;;5058930;28;20195;-74
2022/05/20 08:01:36;;;;;;;19.55;13.57;;;17.30;3.20;;;;;;5067082;28;20226;-73
2022/05/20 08:06:52;;;;;;;16.38;12.70;;;17.30;27.00;;;;;;5067075;28;20197;-74
2022/05/20 08:09:19;;;;;;;16.45;12.77;;;17.20;46.70;;;;;;5055993;28;20210;-74
2022/05/20 08:11:46;;;;;;;17.50;12.80;;;17.30;56.90;;;;;;5055369;28;20203;-74
2022/05/20 08:14:15;;;;;;;17.98;12.10;;;17.40;1.00;;;;;;5055408;28;20719;-74
2022/05/20 08:16:41;;;;;;;17.38;13.65;;;17.50;1.00;;;;;;5055753;28;20547;-74
2022/05/20 08:19:09;;;;;;;15.63;13.27;;;17.40;1.00;;;;;;5055006;28;20213;-73
2022/05/20 08:21:36;;;;;;;17.42;13.07;;;17.40;22.50;;;;;;5055622;28;20313;-74
2022/05/20 08:24:04;;;;;;;16.75;13.30;;;17.60;1.00;;;;;;5054990;28;20203;-74
2022/05/20 08:26:30;;;;;;;16.92;13.68;;;17.30;1.00;;;;;;5055225;28;20202;-74
2022/05/20 08:28:59;;;;;;;17.08;13.48;;;17.40;1.00;;;;;;5055292;28;20210;-74
2022/05/20 08:31:27;;;;;;;18.60;13.50;;;17.40;1.00;;;;;;5054965;28;20195;-74
2022/05/20 08:33:54;;;;;;;18.38;13.50;;;17.60;1.00;;;;;;5055232;28;20203;-74
2022/05/20 08:36:22;;;;;;;18.50;14.30;;;17.70;1.00;;;;;;5055036;28;20218;-73
2022/05/20 08:38:48;;;;;;;18.50;13.55;;;17.60;1.00;;;;;;5054754;28;20210;-73
2022/05/20 08:41:18;;;;;;;16.15;12.30;;;17.80;1.00;;;;;;5055027;28;20684;-74
2022/05/20 08:43:45;;;;;;;16.08;12.07;;;17.70;1.00;;;;;;5054949;28;20203;-74
2022/05/20 08:46:23;;;;;;;17.45;13.35;;;17.90;1.00;;;;;;5053450;28;20203;-74
2022/05/20 08:48:54;;;;;;;16.15;12.68;;;18.10;1.00;;;;;;5054424;28;20211;-74
2022/05/20 08:51:22;;;;;;;17.20;12.60;;;18.00;1.00;;;;;;5055242;28;20203;-74
2022/05/20 08:53:50;;;;;;;16.40;12.05;;;18.40;1.00;;;;;;5054473;28;20217;-74
2022/05/20 08:56:20;;;;;;;17.42;12.73;;;18.70;1.00;;;;;;5054380;28;20221;-74
2022/05/20 08:58:53;;;;;;;17.52;13.30;;;19.20;1.00;;;;;;5054565;28;20203;-74
2022/05/20 09:01:28;;;;;;;16.38;12.13;;;19.70;1.00;;;;;;5054458;28;20229;-74
2022/05/20 09:03:56;;;;;;;15.40;12.23;;;20.00;1.00;;;;;;5054617;28;20202;-73
2022/05/20 09:06:25;;;;;;;14.50;11.45;;;20.00;1.00;;;;;;5054733;28;20211;-74
2022/05/20 09:09:05;;;;;;;13.95;10.63;;;20.70;1.00;;;;;;5053821;28;20210;-74
2022/05/20 09:11:32;;;;;;;14.68;11.00;;;20.70;1.00;;;;;;5053790;28;20308;-73
2022/05/20 09:16:59;;;;;;;14.52;11.82;;;21.10;1.00;;;;;;5053786;28;20214;-73
2022/05/20 09:19:29;;;;;;;15.18;11.98;;;20.90;99.90;;;;;;5053875;28;20214;-73
2022/05/20 09:22:06;;;;;;;14.02;12.13;;;21.10;1.00;;;;;;5054173;28;20289;-73
2022/05/20 09:24:39;;;;;;;16.52;11.50;;;21.40;99.90;;;;;;5053936;28;20209;-74
2022/05/20 09:27:09;;;;;;;14.00;10.32;;;21.40;1.00;;;;;;5053878;28;20218;-74
2022/05/20 09:29:40;;;;;;;13.00;10.07;;;22.10;1.00;;;;;;5053247;28;20195;-74
2022/05/20 09:32:15;;;;;;;13.75;11.52;;;22.60;85.70;;;;;;5053970;28;20260;-74
2022/05/20 09:34:44;;;;;;;14.90;10.80;;;22.00;1.00;;;;;;5052764;28;20206;-73
2022/05/20 09:37:20;;;;;;;13.40;10.70;;;22.20;99.90;;;;;;5054191;28;20229;-74
2022/05/20 09:39:49;;;;;;;14.38;12.25;;;22.20;1.00;;;;;;5071376;28;20194;-74
2022/05/20 09:42:18;;;;;;;14.60;11.45;;;22.20;99.90;;;;;;5070652;28;20221;-73
2022/05/20 09:44:47;;;;;;;14.32;11.38;;;22.20;1.00;;;;;;5073288;28;20233;-74
2022/05/20 09:47:23;;;;;;;14.55;12.32;;;22.60;99.90;;;;;;5070977;28;20198;-73
2022/05/20 09:49:55;;;;;;;16.40;11.52;;;23.00;99.90;;;;;;5066664;28;20293;-73
2022/05/20 09:52:41;;;;;;;13.88;10.38;;;22.90;1.00;;;;;;5053711;28;20248;-74
2022/05/20 09:55:14;;;;;;;11.63;8.82;;;22.60;99.90;;;;;;5053113;28;20206;-73
2022/05/20 09:57:43;;;;;;;12.23;8.65;;;23.10;1.00;;;;;;5053369;28;20203;-73
2022/05/20 10:00:17;;;;;;;12.88;9.82;;;23.50;1.00;;;;;;5053157;28;20207;-74
2022/05/20 10:02:58;;;;;;;14.55;9.43;;;23.10;1.00;;;;;;5052452;28;20286;-74
2022/05/20 10:05:31;;;;;;;8.63;7.05;;;23.90;1.00;;;;;;5054743;28;20198;-74
2022/05/20 10:08:14;;;;;;;14.07;8.68;;;23.50;99.90;;;;;;5068180;28;20211;-74
2022/05/20 10:10:53;;;;;;;9.85;8.43;;;24.10;99.90;;;;;;5074400;28;20206;-74
2022/05/20 10:13:30;;;;;;;13.52;8.60;;;24.20;99.90;;;;;;5066968;28;20198;-74
2022/05/20 10:16:09;;;;;;;11.70;8.70;;;24.00;99.90;;;;;;5073052;28;20202;-73
2022/05/20 10:18:43;;;;;;;8.68;7.78;;;23.70;99.90;;;;;;5068382;28;20232;-74
2022/05/20 10:21:17;;;;;;;10.63;7.53;;;23.40;99.90;;;;;;5069661;28;20283;-74
2022/05/20 10:23:52;;;;;;;9.88;8.30;;;24.10;99.90;;;;;;5071193;28;20221;-74
2022/05/20 10:26:34;;;;;;;8.77;7.65;;;23.80;99.90;;;;;;5077857;28;20204;-74
2022/05/20 10:34:39;;;;;;;10.82;8.32;;;23.50;1.00;;;;;;5053060;28;20555;-74
2022/05/20 10:37:20;;;;;;;9.70;8.48;;;23.70;1.00;;;;;;5053009;28;20583;-74
2022/05/20 10:40:07;;;;;;;11.30;9.65;;;24.10;1.00;;;;;;5051206;28;20226;-74
2022/05/20 10:42:52;;;;;;;9.88;8.90;;;24.00;1.00;;;;;;5050845;28;20705;-74
2022/05/20 10:48:38;;;;;;;9.90;8.82;;;23.90;1.00;;;;;;5052561;28;20259;-74
2022/05/20 10:51:42;;;;;;;11.05;8.10;;;23.90;99.90;;;;;;5051212;28;20203;-74
2022/05/20 10:54:34;;;;;;;13.85;9.60;;;24.40;1.00;;;;;;5052488;28;20203;-74
2022/05/20 10:57:15;;;;;;;12.57;10.05;;;24.30;99.90;;;;;;5062216;28;20203;-74
2022/05/20 11:00:01;;;;;;;7.25;6.07;;;23.60;1.00;;;;;;5068899;28;20663;-74
2022/05/20 11:02:49;;;;;;;5.55;4.03;;;24.00;99.90;;;;;;5071986;28;20229;-74
2022/05/20 11:05:39;;;;;;;4.38;3.72;;;24.70;99.90;;;;;;5071389;28;20202;-74
2022/05/20 11:08:16;;;;;;;3.00;2.80;;;24.50;1.00;;;;;;5052442;28;20215;-74
2022/05/20 11:11:22;;;;;;;4.60;3.15;;;24.90;1.00;;;;;;5050083;28;20205;-74
2022/05/20 11:14:06;;;;;;;6.28;3.45;;;25.10;1.00;;;;;;5046558;28;20203;-73
2022/05/20 11:16:53;;;;;;;5.15;3.90;;;25.70;1.00;;;;;;5052242;28;20203;-73
2022/05/20 11:19:49;;;;;;;4.57;3.78;;;25.50;1.00;;;;;;5051172;28;20562;-73
2022/05/20 11:22:45;;;;;;;7.45;4.40;;;25.60;1.00;;;;;;5052617;28;20322;-73
2022/05/20 11:25:23;;;;;;;4.97;3.78;;;24.90;1.00;;;;;;5052655;28;20199;-73
2022/05/20 11:28:31;;;;;;;4.63;3.67;;;25.10;1.00;;;;;;5050974;28;20206;-73
2022/05/20 11:31:15;;;;;;;4.28;3.67;;;24.80;1.00;;;;;;5052135;28;20202;-73
2022/05/20 11:33:54;;;;;;;6.40;3.95;;;24.90;1.00;;;;;;5051137;28;20202;-73
2022/05/20 11:36:38;;;;;;;6.85;4.60;;;25.00;1.00;;;;;;5052180;28;20631;-73
2022/05/20 11:39:27;;;;;;;4.95;4.47;;;24.90;1.00;;;;;;5052179;28;20202;-73
2022/05/20 11:42:05;;;;;;;4.20;3.63;;;25.30;1.00;;;;;;5050885;28;20697;-73
2022/05/20 11:44:51;;;;;;;4.65;3.97;;;25.60;1.00;;;;;;5057290;28;20553;-73
2022/05/20 11:47:39;;;;;;;5.10;4.13;;;25.50;1.00;;;;;;5055187;28;20203;-73
2022/05/20 11:50:18;;;;;;;5.05;4.55;;;25.30;1.00;;;;;;5052554;28;20557;-74
2022/05/20 11:52:54;;;;;;;6.15;5.40;;;24.80;1.00;;;;;;5052494;28;20206;-73
2022/05/20 11:55:24;;;;;;;8.10;5.00;;;24.40;1.00;;;;;;5050265;28;20206;-73
2022/05/20 11:57:55;;;;;;;6.22;4.75;;;24.80;1.00;;;;;;5063559;28;20202;-73
2022/05/20 12:00:23;;;;;;;5.78;4.90;;;24.40;1.00;;;;;;5071812;28;20195;-73
2022/05/20 12:02:56;;;;;;;7.78;4.50;;;24.40;97.20;;;;;;5071600;28;20233;-73
2022/05/20 12:05:25;;;;;;;10.35;6.53;;;24.30;99.90;;;;;;5072094;28;20629;-73
2022/05/20 12:07:53;;;;;;;10.77;6.75;;;24.10;1.00;;;;;;5072026;28;20641;-73
2022/05/20 12:10:45;;;;;;;9.02;5.80;;;24.10;1.00;;;;;;5071067;28;20202;-73
2022/05/20 12:13:16;;;;;;;8.90;6.10;;;24.90;99.90;;;;;;5072052;28;20202;-73
2022/05/20 12:15:47;;;;;;;7.30;5.47;;;24.10;99.90;;;;;;5071948;28;20586;-73
2022/05/20 12:24:30;;;;;;;6.57;5.50;;;24.30;1.00;;;;;;5075084;28;20256;-73
2022/05/20 12:26:58;;;;;;;6.85;5.30;;;24.30;1.00;;;;;;5073727;28;20213;-73
2022/05/20 12:30:00;;;;;;;7.57;5.63;;;24.00;1.00;;;;;;5075225;28;20675;-72
2022/05/20 12:32:31;;;;;;;8.35;6.50;;;23.80;1.00;;;;;;5075028;28;20628;-72
2022/05/20 12:35:09;;;;;;;6.85;6.18;;;24.10;99.00;;;;;;5074821;28;20577;-72
2022/05/20 12:38:00;;;;;;;8.88;6.30;;;24.00;1.00;;;;;;5064168;28;20206;-73
2022/05/20 12:40:55;;;;;;;10.00;6.85;;;23.90;1.00;;;;;;5054231;28;20213;-73
2022/05/20 12:43:47;;;;;;;8.25;7.07;;;24.10;1.00;;;;;;5054769;28;20219;-73
2022/05/20 12:46:23;;;;;;;9.52;7.40;;;24.30;1.00;;;;;;5054701;28;20207;-73
2022/05/20 12:48:52;;;;;;;11.13;7.18;;;24.40;1.00;;;;;;5053845;28;20213;-73
2022/05/20 12:51:21;;;;;;;8.82;7.90;;;24.60;95.80;;;;;;5054946;28;20211;-73
2022/05/20 12:53:48;;;;;;;12.85;7.45;;;24.70;1.00;;;;;;5054802;28;20202;-72
2022/05/20 12:56:27;;;;;;;11.85;7.80;;;24.30;1.00;;;;;;5055191;28;20561;-73
2022/05/20 12:59:11;;;;;;;10.95;8.23;;;24.60;1.00;;;;;;5054834;28;20211;-73
2022/05/20 13:01:39;;;;;;;10.38;7.95;;;24.70;1.00;;;;;;5055035;28;20738;-73
2022/05/20 13:04:11;;;;;;;10.27;8.48;;;24.50;91.20;;;;;;5055182;28;20202;-73
2022/05/20 13:06:47;;;;;;;12.60;8.68;;;24.30;38.00;;;;;;5054819;28;20580;-73
2022/05/20 13:09:22;;;;;;;11.18;8.20;;;24.70;1.00;;;;;;5061612;28;20206;-73
2022/05/20 13:11:50;;;;;;;10.68;8.52;;;24.50;1.00;;;;;;5071500;28;20205;-73
2022/05/20 13:14:20;;;;;;;10.88;7.50;;;24.70;99.90;;;;;;5066573;28;20260;-73
2022/05/20 13:16:49;;;;;;;9.88;8.35;;;24.60;1.00;;;;;;5054735;28;20206;-73
2022/05/20 13:19:19;;;;;;;10.80;8.27;;;24.50;99.90;;;;;;5054006;28;20207;-73
2022/05/20 13:21:53;;;;;;;10.63;9.45;;;24.40;1.00;;;;;;5054255;28;20227;-73
2022/05/20 13:24:26;;;;;;;11.95;9.13;;;24.30;1.00;;;;;;5052602;28;20207;-73
2022/05/20 13:27:07;;;;;;;12.23;9.38;;;24.20;97.30;;;;;;5052527;28;20249;-73
2022/05/20 13:29:34;;;;;;;14.15;9.93;;;24.10;1.00;;;;;;5052985;28;20214;-73
2022/05/20 13:32:17;;;;;;;10.65;9.55;;;24.20;1.00;;;;;;5053588;28;20203;-73
2022/05/20 13:34:45;;;;;;;12.40;8.20;;;23.90;99.90;;;;;;5066099;28;20202;-73